»·PEaware :: N789RN KSNA-KSNA

N789RN :: KSNA-KSNA

FLIGHT INFORMATION

Flight Status: Arrived
Operator: Privately registered:
United States
More flights under this callsign
Pilot: William N. (27524)
Aircraft: CESSNA 172 SKYHAWK
(C172)
More flights by this aircraft type
Origin: KSNA John Wayne-Orange Co
United States
Destination: KSNA John Wayne-Orange Co
United States
More flights between these airports :: More routes between these airports
Route: SLI
File this flight plan on PilotEdge
Remarks: +CW / Zulu weather near minimums
Altitude:
(Current/Filed)
3,000ft
Speed:
(Current/Filed)
110kts
Departed: 13-Feb-20 09:18 PM
Arrived: 13-Feb-20 09:44 PM
Distance/Time
Traveled:
0nm/0:25
Distance/Time
To Go:
Arrived

Flight Plot

Page will automatically refresh every two minutes.


Map Options




Map Legend


Flown Route
Filed Route
Departure Airport
Arrival Airport
Navaid (VOR, NDB)
Fix

Horizontal Profiles

Position Reports

Time Latitude Longitude Heading Altitude Ground
Speed
13-Feb-20 20:55 33.677549 -117.869379 297 60ft 0kts
13-Feb-20 20:56 33.677549 -117.869379 297 60ft 0kts
13-Feb-20 20:57 33.677549 -117.869379 297 60ft 0kts
13-Feb-20 20:58 33.677549 -117.869379 297 60ft 0kts
13-Feb-20 20:59 33.677549 -117.869379 297 60ft 0kts
13-Feb-20 21:00 33.677549 -117.869379 297 60ft 0kts
13-Feb-20 21:01 33.677549 -117.869379 297 60ft 0kts
13-Feb-20 21:02 33.677549 -117.869379 297 60ft 0kts
13-Feb-20 21:03 33.677549 -117.869379 297 60ft 0kts
13-Feb-20 21:04 33.677549 -117.869379 297 60ft 0kts
13-Feb-20 21:05 33.677549 -117.869379 297 60ft 0kts
13-Feb-20 21:06 33.677549 -117.869379 297 60ft 0kts
13-Feb-20 21:07 33.677549 -117.869379 297 60ft 0kts
13-Feb-20 21:08 33.677549 -117.869379 297 60ft 0kts
13-Feb-20 21:09 33.677549 -117.869379 297 60ft 0kts
13-Feb-20 21:10 33.677549 -117.869379 297 60ft 0kts
13-Feb-20 21:11 33.677549 -117.869379 297 60ft 0kts
13-Feb-20 21:12 33.677832 -117.869453 27 60ft 10kts
13-Feb-20 21:14 33.680837 -117.867210 31 60ft 11kts
13-Feb-20 21:15 33.681215 -117.866404 96 60ft 0kts
13-Feb-20 21:16 33.681208 -117.866330 96 60ft 0kts
13-Feb-20 21:17 33.677256 -117.867702 207 60ft 72kts
13-Feb-20 21:19 33.662904 -117.883605 232 718ft 89kts
13-Feb-20 21:20 33.655350 -117.912171 252 1672ft 81kts
13-Feb-20 21:21 33.647044 -117.941847 252 2555ft 83kts
13-Feb-20 21:22 33.656876 -117.963131 320 3003ft 105kts
13-Feb-20 21:23 33.683622 -117.978535 349 2998ft 119kts
13-Feb-20 21:24 33.710752 -117.977281 20 2999ft 110kts
13-Feb-20 21:25 33.736164 -117.967640 20 2999ft 110kts
13-Feb-20 21:26 33.759906 -117.958536 25 2998ft 109kts
13-Feb-20 21:27 33.775668 -117.943933 41 2999ft 108kts
13-Feb-20 21:28 33.791175 -117.928333 41 2999ft 108kts
13-Feb-20 21:29 33.805563 -117.913854 41 2999ft 108kts
13-Feb-20 21:30 33.821398 -117.897918 41 2999ft 108kts
13-Feb-20 21:31 33.835458 -117.883766 41 2999ft 108kts
13-Feb-20 21:32 33.850867 -117.868254 41 2999ft 108kts
13-Feb-20 21:33 33.864491 -117.850992 80 2995ft 107kts
13-Feb-20 21:34 33.855895 -117.823220 111 2999ft 110kts
13-Feb-20 21:35 33.844357 -117.793515 111 2999ft 110kts
13-Feb-20 21:36 33.831429 -117.764243 131 2995ft 113kts
13-Feb-20 21:37 33.809449 -117.775944 233 2999ft 124kts
13-Feb-20 21:38 33.789530 -117.795697 208 2999ft 123kts
13-Feb-20 21:39 33.765548 -117.811772 205 2825ft 132kts
13-Feb-20 21:39 33.744444 -117.825267 205 2199ft 130kts
13-Feb-20 21:40 33.715828 -117.843417 205 1091ft 129kts
13-Feb-20 21:42 33.685520 -117.862610 206 164ft 123kts
13-Feb-20 21:42 33.670747 -117.872000 216 60ft 48kts
13-Feb-20 21:43 33.669873 -117.871838 353 60ft 0kts
13-Feb-20 21:44 33.669873 -117.871838 353 60ft 0kts
13-Feb-20 21:45 33.669873 -117.871838 353 60ft 0kts

Navigation Log

Ident Type
Flight plan parsing failed, navigation log unavailable